sensor_id;sensor_type;location;lat;lon;timestamp;temperature;humidity
68011;DHT22;54794;48.348;7.878;2023-03-19T00:00:42;14.60;44.60
68011;DHT22;54794;48.348;7.878;2023-03-19T00:03:09;14.60;44.60
68011;DHT22;54794;48.348;7.878;2023-03-19T00:05:36;14.60;44.60
68011;DHT22;54794;48.348;7.878;2023-03-19T00:08:04;14.60;44.70
68011;DHT22;54794;48.348;7.878;2023-03-19T00:10:31;14.50;44.70
68011;DHT22;54794;48.348;7.878;2023-03-19T00:12:58;14.50;44.70
68011;DHT22;54794;48.348;7.878;2023-03-19T00:15:25;14.50;44.80
68011;DHT22;54794;48.348;7.878;2023-03-19T00:17:52;14.50;44.80
68011;DHT22;54794;48.348;7.878;2023-03-19T00:20:19;14.50;44.90
68011;DHT22;54794;48.348;7.878;2023-03-19T00:22:47;14.50;44.90
68011;DHT22;54794;48.348;7.878;2023-03-19T00:25:14;14.50;45.10
68011;DHT22;54794;48.348;7.878;2023-03-19T00:27:41;14.50;44.80
68011;DHT22;54794;48.348;7.878;2023-03-19T00:30:09;14.40;44.80
68011;DHT22;54794;48.348;7.878;2023-03-19T00:32:37;14.40;45.00
68011;DHT22;54794;48.348;7.878;2023-03-19T00:35:05;14.40;45.00
68011;DHT22;54794;48.348;7.878;2023-03-19T00:37:34;14.40;45.10
68011;DHT22;54794;48.348;7.878;2023-03-19T00:40:02;14.40;45.10
68011;DHT22;54794;48.348;7.878;2023-03-19T00:42:30;14.40;45.20
68011;DHT22;54794;48.348;7.878;2023-03-19T00:44:58;14.40;45.20
68011;DHT22;54794;48.348;7.878;2023-03-19T00:47:25;14.40;45.30
68011;DHT22;54794;48.348;7.878;2023-03-19T00:49:52;14.40;45.20
68011;DHT22;54794;48.348;7.878;2023-03-19T00:52:19;14.40;45.30
68011;DHT22;54794;48.348;7.878;2023-03-19T00:54:46;14.40;45.40
68011;DHT22;54794;48.348;7.878;2023-03-19T00:57:13;14.40;45.50
68011;DHT22;54794;48.348;7.878;2023-03-19T00:59:39;14.40;45.50
68011;DHT22;54794;48.348;7.878;2023-03-19T01:02:06;14.40;45.50
68011;DHT22;54794;48.348;7.878;2023-03-19T01:04:33;14.40;45.70
68011;DHT22;54794;48.348;7.878;2023-03-19T01:07:00;14.40;45.60
68011;DHT22;54794;48.348;7.878;2023-03-19T01:09:27;14.30;45.60
68011;DHT22;54794;48.348;7.878;2023-03-19T01:11:54;14.30;45.70
68011;DHT22;54794;48.348;7.878;2023-03-19T01:14:21;14.30;45.80
68011;DHT22;54794;48.348;7.878;2023-03-19T01:16:48;14.30;46.00
68011;DHT22;54794;48.348;7.878;2023-03-19T01:19:15;14.30;45.80
68011;DHT22;54794;48.348;7.878;2023-03-19T01:21:42;14.30;46.00
68011;DHT22;54794;48.348;7.878;2023-03-19T01:24:12;14.30;46.00
68011;DHT22;54794;48.348;7.878;2023-03-19T01:26:39;14.20;46.00
68011;DHT22;54794;48.348;7.878;2023-03-19T01:29:06;14.20;46.10
68011;DHT22;54794;48.348;7.878;2023-03-19T01:31:45;14.20;46.10
68011;DHT22;54794;48.348;7.878;2023-03-19T01:34:12;14.20;46.60
68011;DHT22;54794;48.348;7.878;2023-03-19T01:36:39;14.20;46.20
68011;DHT22;54794;48.348;7.878;2023-03-19T01:39:06;14.20;46.30
68011;DHT22;54794;48.348;7.878;2023-03-19T01:41:33;14.30;46.40
68011;DHT22;54794;48.348;7.878;2023-03-19T01:44:00;14.20;46.30
68011;DHT22;54794;48.348;7.878;2023-03-19T01:46:31;14.20;46.30
68011;DHT22;54794;48.348;7.878;2023-03-19T01:49:05;14.20;46.90
68011;DHT22;54794;48.348;7.878;2023-03-19T01:51:40;14.20;46.70
68011;DHT22;54794;48.348;7.878;2023-03-19T01:54:12;14.20;47.00
68011;DHT22;54794;48.348;7.878;2023-03-19T01:56:42;14.10;46.80
68011;DHT22;54794;48.348;7.878;2023-03-19T01:59:24;14.10;46.70
68011;DHT22;54794;48.348;7.878;2023-03-19T02:02:19;14.00;47.20
68011;DHT22;54794;48.348;7.878;2023-03-19T02:04:51;14.00;47.00
68011;DHT22;54794;48.348;7.878;2023-03-19T02:07:22;14.00;47.00
68011;DHT22;54794;48.348;7.878;2023-03-19T02:09:50;13.90;46.90
68011;DHT22;54794;48.348;7.878;2023-03-19T02:12:17;14.00;47.10
68011;DHT22;54794;48.348;7.878;2023-03-19T02:14:44;13.90;47.10
68011;DHT22;54794;48.348;7.878;2023-03-19T02:17:11;13.90;47.10
68011;DHT22;54794;48.348;7.878;2023-03-19T02:19:45;13.90;47.10
68011;DHT22;54794;48.348;7.878;2023-03-19T02:22:21;13.90;47.40
68011;DHT22;54794;48.348;7.878;2023-03-19T02:25:01;13.90;47.30
68011;DHT22;54794;48.348;7.878;2023-03-19T02:27:32;13.90;47.50
68011;DHT22;54794;48.348;7.878;2023-03-19T02:29:59;13.90;47.20
68011;DHT22;54794;48.348;7.878;2023-03-19T02:32:28;13.90;47.30
68011;DHT22;54794;48.348;7.878;2023-03-19T02:34:55;13.90;47.20
68011;DHT22;54794;48.348;7.878;2023-03-19T02:37:25;13.90;47.30
68011;DHT22;54794;48.348;7.878;2023-03-19T02:40:03;13.90;47.50
68011;DHT22;54794;48.348;7.878;2023-03-19T02:42:34;13.90;47.50
68011;DHT22;54794;48.348;7.878;2023-03-19T02:45:01;13.90;47.40
68011;DHT22;54794;48.348;7.878;2023-03-19T02:47:28;13.90;47.40
68011;DHT22;54794;48.348;7.878;2023-03-19T02:49:55;13.90;47.30
68011;DHT22;54794;48.348;7.878;2023-03-19T02:52:22;14.00;47.40
68011;DHT22;54794;48.348;7.878;2023-03-19T02:54:49;14.00;47.50
68011;DHT22;54794;48.348;7.878;2023-03-19T02:57:16;14.00;47.50
68011;DHT22;54794;48.348;7.878;2023-03-19T02:59:43;14.00;47.50
68011;DHT22;54794;48.348;7.878;2023-03-19T03:02:10;14.00;47.50
68011;DHT22;54794;48.348;7.878;2023-03-19T03:04:37;14.00;47.70
68011;DHT22;54794;48.348;7.878;2023-03-19T03:07:04;14.00;47.60
68011;DHT22;54794;48.348;7.878;2023-03-19T03:09:31;14.00;47.70
68011;DHT22;54794;48.348;7.878;2023-03-19T03:11:58;14.00;47.80
68011;DHT22;54794;48.348;7.878;2023-03-19T03:14:25;14.00;47.50
68011;DHT22;54794;48.348;7.878;2023-03-19T03:16:52;14.00;47.60
68011;DHT22;54794;48.348;7.878;2023-03-19T03:19:19;13.90;47.70
68011;DHT22;54794;48.348;7.878;2023-03-19T03:21:47;14.00;47.70
68011;DHT22;54794;48.348;7.878;2023-03-19T03:24:13;13.90;47.70
68011;DHT22;54794;48.348;7.878;2023-03-19T03:26:40;14.00;47.80
68011;DHT22;54794;48.348;7.878;2023-03-19T03:29:08;14.00;47.80
68011;DHT22;54794;48.348;7.878;2023-03-19T03:31:35;14.00;47.90
68011;DHT22;54794;48.348;7.878;2023-03-19T03:34:02;13.90;47.80
68011;DHT22;54794;48.348;7.878;2023-03-19T03:36:29;13.90;48.00
68011;DHT22;54794;48.348;7.878;2023-03-19T03:38:56;13.90;48.10
68011;DHT22;54794;48.348;7.878;2023-03-19T03:41:24;13.90;47.70
68011;DHT22;54794;48.348;7.878;2023-03-19T03:43:51;13.80;47.80
68011;DHT22;54794;48.348;7.878;2023-03-19T03:46:17;13.80;47.90
68011;DHT22;54794;48.348;7.878;2023-03-19T03:48:44;13.80;48.10
68011;DHT22;54794;48.348;7.878;2023-03-19T03:51:11;13.80;48.00
68011;DHT22;54794;48.348;7.878;2023-03-19T03:53:38;13.80;48.10
68011;DHT22;54794;48.348;7.878;2023-03-19T03:56:05;13.80;48.10
68011;DHT22;54794;48.348;7.878;2023-03-19T03:58:32;13.80;48.20
68011;DHT22;54794;48.348;7.878;2023-03-19T04:00:59;13.80;48.40
68011;DHT22;54794;48.348;7.878;2023-03-19T04:03:26;13.80;48.40
68011;DHT22;54794;48.348;7.878;2023-03-19T04:05:53;13.80;48.50
68011;DHT22;54794;48.348;7.878;2023-03-19T04:08:20;13.80;48.70
68011;DHT22;54794;48.348;7.878;2023-03-19T04:10:48;13.80;48.50
68011;DHT22;54794;48.348;7.878;2023-03-19T04:13:15;13.70;48.50
68011;DHT22;54794;48.348;7.878;2023-03-19T04:15:43;13.80;48.60
68011;DHT22;54794;48.348;7.878;2023-03-19T04:18:10;13.70;48.60
68011;DHT22;54794;48.348;7.878;2023-03-19T04:20:37;13.80;48.70
68011;DHT22;54794;48.348;7.878;2023-03-19T04:23:04;13.80;48.70
68011;DHT22;54794;48.348;7.878;2023-03-19T04:25:31;13.80;48.80
68011;DHT22;54794;48.348;7.878;2023-03-19T04:27:58;13.80;48.80
68011;DHT22;54794;48.348;7.878;2023-03-19T04:30:25;13.80;48.80
68011;DHT22;54794;48.348;7.878;2023-03-19T04:32:52;13.70;48.80
68011;DHT22;54794;48.348;7.878;2023-03-19T04:35:19;13.70;48.70
68011;DHT22;54794;48.348;7.878;2023-03-19T04:37:47;13.70;48.80
68011;DHT22;54794;48.348;7.878;2023-03-19T04:40:14;13.70;48.90
68011;DHT22;54794;48.348;7.878;2023-03-19T04:42:42;13.70;48.90
68011;DHT22;54794;48.348;7.878;2023-03-19T04:45:10;13.70;48.90
68011;DHT22;54794;48.348;7.878;2023-03-19T04:47:38;13.70;49.10
68011;DHT22;54794;48.348;7.878;2023-03-19T04:50:06;13.80;48.80
68011;DHT22;54794;48.348;7.878;2023-03-19T04:52:34;13.80;49.00
68011;DHT22;54794;48.348;7.878;2023-03-19T04:55:04;13.80;49.10
68011;DHT22;54794;48.348;7.878;2023-03-19T04:57:32;13.70;49.10
68011;DHT22;54794;48.348;7.878;2023-03-19T04:59:59;13.70;49.10
68011;DHT22;54794;48.348;7.878;2023-03-19T05:02:26;13.70;49.20
68011;DHT22;54794;48.348;7.878;2023-03-19T05:04:53;13.70;49.10
68011;DHT22;54794;48.348;7.878;2023-03-19T05:07:20;13.70;49.20
68011;DHT22;54794;48.348;7.878;2023-03-19T05:09:47;13.70;49.20
68011;DHT22;54794;48.348;7.878;2023-03-19T05:12:14;13.70;49.30
68011;DHT22;54794;48.348;7.878;2023-03-19T05:14:41;13.70;49.50
68011;DHT22;54794;48.348;7.878;2023-03-19T05:17:08;13.70;49.40
68011;DHT22;54794;48.348;7.878;2023-03-19T05:19:37;13.70;49.40
68011;DHT22;54794;48.348;7.878;2023-03-19T05:22:05;13.70;49.50
68011;DHT22;54794;48.348;7.878;2023-03-19T05:24:31;13.70;49.60
68011;DHT22;54794;48.348;7.878;2023-03-19T05:26:58;13.60;49.60
68011;DHT22;54794;48.348;7.878;2023-03-19T05:29:25;13.60;49.60
68011;DHT22;54794;48.348;7.878;2023-03-19T05:31:53;13.60;49.60
68011;DHT22;54794;48.348;7.878;2023-03-19T05:34:20;13.60;49.60
68011;DHT22;54794;48.348;7.878;2023-03-19T05:36:48;13.60;49.60
68011;DHT22;54794;48.348;7.878;2023-03-19T05:39:15;13.60;49.70
68011;DHT22;54794;48.348;7.878;2023-03-19T05:41:42;13.60;49.70
68011;DHT22;54794;48.348;7.878;2023-03-19T05:44:09;13.70;49.70
68011;DHT22;54794;48.348;7.878;2023-03-19T05:46:36;13.60;49.70
68011;DHT22;54794;48.348;7.878;2023-03-19T05:49:03;13.60;49.70
68011;DHT22;54794;48.348;7.878;2023-03-19T05:51:31;13.70;49.70
68011;DHT22;54794;48.348;7.878;2023-03-19T05:53:58;13.70;49.70
68011;DHT22;54794;48.348;7.878;2023-03-19T05:56:25;13.70;49.80
68011;DHT22;54794;48.348;7.878;2023-03-19T05:58:52;13.70;49.80
68011;DHT22;54794;48.348;7.878;2023-03-19T06:01:19;13.70;49.80
68011;DHT22;54794;48.348;7.878;2023-03-19T06:03:46;13.70;49.70
68011;DHT22;54794;48.348;7.878;2023-03-19T06:06:13;13.70;49.70
68011;DHT22;54794;48.348;7.878;2023-03-19T06:08:41;13.70;49.70
68011;DHT22;54794;48.348;7.878;2023-03-19T06:11:08;13.70;49.70
68011;DHT22;54794;48.348;7.878;2023-03-19T06:13:35;13.70;49.80
68011;DHT22;54794;48.348;7.878;2023-03-19T06:16:02;13.80;49.80
68011;DHT22;54794;48.348;7.878;2023-03-19T06:18:29;13.80;49.70
68011;DHT22;54794;48.348;7.878;2023-03-19T06:20:56;13.80;49.80
68011;DHT22;54794;48.348;7.878;2023-03-19T06:23:23;13.80;49.60
68011;DHT22;54794;48.348;7.878;2023-03-19T06:25:49;13.80;49.60
68011;DHT22;54794;48.348;7.878;2023-03-19T06:28:16;13.90;49.70
68011;DHT22;54794;48.348;7.878;2023-03-19T06:30:43;13.90;49.60
68011;DHT22;54794;48.348;7.878;2023-03-19T06:33:11;13.90;49.50
68011;DHT22;54794;48.348;7.878;2023-03-19T06:35:38;13.90;49.40
68011;DHT22;54794;48.348;7.878;2023-03-19T06:38:06;14.00;49.40
68011;DHT22;54794;48.348;7.878;2023-03-19T06:40:33;14.00;49.40
68011;DHT22;54794;48.348;7.878;2023-03-19T06:43:00;14.10;49.40
68011;DHT22;54794;48.348;7.878;2023-03-19T06:45:27;14.10;49.40
68011;DHT22;54794;48.348;7.878;2023-03-19T06:47:54;14.20;49.40
68011;DHT22;54794;48.348;7.878;2023-03-19T06:50:21;14.20;49.40
68011;DHT22;54794;48.348;7.878;2023-03-19T06:52:48;14.30;49.40
68011;DHT22;54794;48.348;7.878;2023-03-19T06:55:15;14.40;49.30
68011;DHT22;54794;48.348;7.878;2023-03-19T06:57:47;14.40;49.40
68011;DHT22;54794;48.348;7.878;2023-03-19T07:00:16;14.50;49.40
68011;DHT22;54794;48.348;7.878;2023-03-19T07:02:44;14.60;49.40
68011;DHT22;54794;48.348;7.878;2023-03-19T07:05:11;14.60;49.40
68011;DHT22;54794;48.348;7.878;2023-03-19T07:07:37;14.70;49.30
68011;DHT22;54794;48.348;7.878;2023-03-19T07:10:04;14.80;49.30
68011;DHT22;54794;48.348;7.878;2023-03-19T07:12:32;14.80;49.20
68011;DHT22;54794;48.348;7.878;2023-03-19T07:15:01;14.90;49.20
68011;DHT22;54794;48.348;7.878;2023-03-19T07:17:28;15.00;49.10
68011;DHT22;54794;48.348;7.878;2023-03-19T07:19:55;15.10;49.20
68011;DHT22;54794;48.348;7.878;2023-03-19T07:22:22;15.10;49.20
68011;DHT22;54794;48.348;7.878;2023-03-19T07:24:48;15.20;49.20
68011;DHT22;54794;48.348;7.878;2023-03-19T07:27:17;15.30;49.10
68011;DHT22;54794;48.348;7.878;2023-03-19T07:29:43;15.40;49.10
68011;DHT22;54794;48.348;7.878;2023-03-19T07:32:11;15.50;49.20
68011;DHT22;54794;48.348;7.878;2023-03-19T07:34:38;15.60;49.10
68011;DHT22;54794;48.348;7.878;2023-03-19T07:37:05;15.70;49.10
68011;DHT22;54794;48.348;7.878;2023-03-19T07:39:32;15.80;49.10
68011;DHT22;54794;48.348;7.878;2023-03-19T07:41:59;15.90;49.00
68011;DHT22;54794;48.348;7.878;2023-03-19T07:44:26;16.00;49.00
68011;DHT22;54794;48.348;7.878;2023-03-19T07:46:53;16.10;49.00
68011;DHT22;54794;48.348;7.878;2023-03-19T07:49:19;16.20;49.00
68011;DHT22;54794;48.348;7.878;2023-03-19T07:51:48;16.40;49.00
68011;DHT22;54794;48.348;7.878;2023-03-19T07:54:15;16.50;48.60
68011;DHT22;54794;48.348;7.878;2023-03-19T07:56:43;16.60;48.50
68011;DHT22;54794;48.348;7.878;2023-03-19T07:59:10;16.60;48.40
68011;DHT22;54794;48.348;7.878;2023-03-19T08:01:37;16.70;48.20
68011;DHT22;54794;48.348;7.878;2023-03-19T08:04:05;16.80;48.50
68011;DHT22;54794;48.348;7.878;2023-03-19T08:06:32;16.90;48.30
68011;DHT22;54794;48.348;7.878;2023-03-19T08:09:00;16.90;48.30
68011;DHT22;54794;48.348;7.878;2023-03-19T08:11:27;17.00;48.30
68011;DHT22;54794;48.348;7.878;2023-03-19T08:13:55;17.10;48.50
68011;DHT22;54794;48.348;7.878;2023-03-19T08:16:23;17.20;48.30
68011;DHT22;54794;48.348;7.878;2023-03-19T08:18:50;17.30;48.70
68011;DHT22;54794;48.348;7.878;2023-03-19T08:21:18;17.30;48.20
68011;DHT22;54794;48.348;7.878;2023-03-19T08:23:46;17.40;48.20
68011;DHT22;54794;48.348;7.878;2023-03-19T08:26:14;17.50;48.20
68011;DHT22;54794;48.348;7.878;2023-03-19T08:28:42;17.60;48.10
68011;DHT22;54794;48.348;7.878;2023-03-19T08:31:10;17.60;47.60
68011;DHT22;54794;48.348;7.878;2023-03-19T08:33:39;17.60;47.60
68011;DHT22;54794;48.348;7.878;2023-03-19T08:36:10;17.70;47.70
68011;DHT22;54794;48.348;7.878;2023-03-19T08:38:39;17.70;47.60
68011;DHT22;54794;48.348;7.878;2023-03-19T08:41:07;17.70;47.60
68011;DHT22;54794;48.348;7.878;2023-03-19T08:43:36;17.70;47.70
68011;DHT22;54794;48.348;7.878;2023-03-19T08:46:04;17.70;47.70
68011;DHT22;54794;48.348;7.878;2023-03-19T08:48:32;17.80;47.70
68011;DHT22;54794;48.348;7.878;2023-03-19T08:51:01;17.80;47.80
68011;DHT22;54794;48.348;7.878;2023-03-19T08:53:29;17.90;48.00
68011;DHT22;54794;48.348;7.878;2023-03-19T08:56:00;17.90;48.10
68011;DHT22;54794;48.348;7.878;2023-03-19T08:58:29;18.00;48.10
68011;DHT22;54794;48.348;7.878;2023-03-19T09:01:10;18.10;48.00
68011;DHT22;54794;48.348;7.878;2023-03-19T09:03:41;18.20;48.00
68011;DHT22;54794;48.348;7.878;2023-03-19T09:06:10;18.30;47.80
68011;DHT22;54794;48.348;7.878;2023-03-19T09:08:37;18.40;47.70
68011;DHT22;54794;48.348;7.878;2023-03-19T09:11:04;18.50;47.40
68011;DHT22;54794;48.348;7.878;2023-03-19T09:13:32;18.50;47.30
68011;DHT22;54794;48.348;7.878;2023-03-19T09:15:59;18.50;47.20
68011;DHT22;54794;48.348;7.878;2023-03-19T09:18:27;18.50;47.20
68011;DHT22;54794;48.348;7.878;2023-03-19T09:20:54;18.50;47.10
68011;DHT22;54794;48.348;7.878;2023-03-19T09:23:21;18.40;47.10
68011;DHT22;54794;48.348;7.878;2023-03-19T09:25:49;18.40;47.20
68011;DHT22;54794;48.348;7.878;2023-03-19T09:28:17;18.40;47.40
68011;DHT22;54794;48.348;7.878;2023-03-19T09:30:46;18.40;47.20
68011;DHT22;54794;48.348;7.878;2023-03-19T09:33:15;18.40;47.20
68011;DHT22;54794;48.348;7.878;2023-03-19T09:35:52;18.40;47.20
68011;DHT22;54794;48.348;7.878;2023-03-19T09:38:21;18.40;47.20
68011;DHT22;54794;48.348;7.878;2023-03-19T09:40:59;18.30;47.10
68011;DHT22;54794;48.348;7.878;2023-03-19T09:43:53;18.30;47.10
68011;DHT22;54794;48.348;7.878;2023-03-19T09:46:51;18.20;47.10
68011;DHT22;54794;48.348;7.878;2023-03-19T09:49:39;18.30;47.40
68011;DHT22;54794;48.348;7.878;2023-03-19T09:57:50;18.20;47.40
68011;DHT22;54794;48.348;7.878;2023-03-19T10:00:35;18.30;47.50
68011;DHT22;54794;48.348;7.878;2023-03-19T10:06:26;18.30;47.50
68011;DHT22;54794;48.348;7.878;2023-03-19T10:09:18;18.20;47.40
68011;DHT22;54794;48.348;7.878;2023-03-19T10:15:34;18.20;47.40
68011;DHT22;54794;48.348;7.878;2023-03-19T10:18:19;18.20;47.30
68011;DHT22;54794;48.348;7.878;2023-03-19T10:21:04;18.20;47.30
68011;DHT22;54794;48.348;7.878;2023-03-19T10:23:52;18.20;47.20
68011;DHT22;54794;48.348;7.878;2023-03-19T10:26:29;18.20;47.30
68011;DHT22;54794;48.348;7.878;2023-03-19T10:29:09;18.20;47.40
68011;DHT22;54794;48.348;7.878;2023-03-19T10:32:07;18.20;47.40
68011;DHT22;54794;48.348;7.878;2023-03-19T10:34:57;18.20;47.50
68011;DHT22;54794;48.348;7.878;2023-03-19T10:37:28;18.20;47.50
68011;DHT22;54794;48.348;7.878;2023-03-19T10:39:58;18.20;47.50
68011;DHT22;54794;48.348;7.878;2023-03-19T10:43:05;18.10;47.50
68011;DHT22;54794;48.348;7.878;2023-03-19T10:45:45;18.10;47.60
68011;DHT22;54794;48.348;7.878;2023-03-19T10:48:17;18.10;47.40
68011;DHT22;54794;48.348;7.878;2023-03-19T10:51:10;18.10;47.50
68011;DHT22;54794;48.348;7.878;2023-03-19T10:53:40;18.00;47.50
68011;DHT22;54794;48.348;7.878;2023-03-19T10:56:23;18.00;47.50
68011;DHT22;54794;48.348;7.878;2023-03-19T11:01:43;18.00;47.70
68011;DHT22;54794;48.348;7.878;2023-03-19T11:04:19;18.00;47.80
68011;DHT22;54794;48.348;7.878;2023-03-19T11:06:49;18.00;47.70
68011;DHT22;54794;48.348;7.878;2023-03-19T11:14:47;18.00;48.10
68011;DHT22;54794;48.348;7.878;2023-03-19T11:17:21;18.00;48.10
68011;DHT22;54794;48.348;7.878;2023-03-19T11:19:56;18.10;48.10
68011;DHT22;54794;48.348;7.878;2023-03-19T11:22:33;18.10;48.20
68011;DHT22;54794;48.348;7.878;2023-03-19T11:28:01;18.20;48.20
68011;DHT22;54794;48.348;7.878;2023-03-19T11:39:59;18.20;48.20
68011;DHT22;54794;48.348;7.878;2023-03-19T11:51:22;18.30;48.00
68011;DHT22;54794;48.348;7.878;2023-03-19T11:54:02;18.30;48.30
68011;DHT22;54794;48.348;7.878;2023-03-19T11:56:48;18.30;48.30
68011;DHT22;54794;48.348;7.878;2023-03-19T12:05:36;18.50;48.30
68011;DHT22;54794;48.348;7.878;2023-03-19T12:08:38;18.60;48.40
68011;DHT22;54794;48.348;7.878;2023-03-19T12:11:49;18.60;48.40
68011;DHT22;54794;48.348;7.878;2023-03-19T12:24:09;18.90;48.00
68011;DHT22;54794;48.348;7.878;2023-03-19T12:35:23;19.10;47.90
68011;DHT22;54794;48.348;7.878;2023-03-19T12:37:59;19.20;47.90
68011;DHT22;54794;48.348;7.878;2023-03-19T12:40:57;19.20;47.90
68011;DHT22;54794;48.348;7.878;2023-03-19T12:46:39;19.30;47.80
68011;DHT22;54794;48.348;7.878;2023-03-19T12:49:15;19.30;47.60
68011;DHT22;54794;48.348;7.878;2023-03-19T12:51:58;19.40;47.50
68011;DHT22;54794;48.348;7.878;2023-03-19T12:54:37;19.30;47.30
68011;DHT22;54794;48.348;7.878;2023-03-19T12:57:16;19.30;47.50
68011;DHT22;54794;48.348;7.878;2023-03-19T13:00:04;19.30;47.30
68011;DHT22;54794;48.348;7.878;2023-03-19T13:02:46;19.30;47.30
68011;DHT22;54794;48.348;7.878;2023-03-19T13:08:15;19.20;47.50
68011;DHT22;54794;48.348;7.878;2023-03-19T13:10:50;19.20;47.40
68011;DHT22;54794;48.348;7.878;2023-03-19T13:15:52;19.20;47.50
68011;DHT22;54794;48.348;7.878;2023-03-19T13:18:48;19.10;47.30
68011;DHT22;54794;48.348;7.878;2023-03-19T13:21:28;19.10;47.50
68011;DHT22;54794;48.348;7.878;2023-03-19T13:24:34;19.10;47.50
68011;DHT22;54794;48.348;7.878;2023-03-19T13:27:06;19.10;47.50
68011;DHT22;54794;48.348;7.878;2023-03-19T13:32:43;19.20;47.50
68011;DHT22;54794;48.348;7.878;2023-03-19T13:38:10;19.20;47.60
68011;DHT22;54794;48.348;7.878;2023-03-19T13:40:58;19.20;48.20
68011;DHT22;54794;48.348;7.878;2023-03-19T13:54:06;19.40;47.50
68011;DHT22;54794;48.348;7.878;2023-03-19T13:59:36;19.40;47.50
68011;DHT22;54794;48.348;7.878;2023-03-19T14:05:16;19.40;47.50
68011;DHT22;54794;48.348;7.878;2023-03-19T14:07:53;19.50;47.50
68011;DHT22;54794;48.348;7.878;2023-03-19T14:10:27;19.40;47.30
68011;DHT22;54794;48.348;7.878;2023-03-19T14:13:27;19.40;47.30
68011;DHT22;54794;48.348;7.878;2023-03-19T14:16:14;19.40;47.20
68011;DHT22;54794;48.348;7.878;2023-03-19T14:18:44;19.30;47.30
68011;DHT22;54794;48.348;7.878;2023-03-19T14:21:15;19.30;47.30
68011;DHT22;54794;48.348;7.878;2023-03-19T14:24:36;19.30;47.30
68011;DHT22;54794;48.348;7.878;2023-03-19T14:27:31;19.20;47.40
68011;DHT22;54794;48.348;7.878;2023-03-19T14:30:10;19.20;47.60
68011;DHT22;54794;48.348;7.878;2023-03-19T14:32:51;19.20;47.90
68011;DHT22;54794;48.348;7.878;2023-03-19T14:35:24;19.20;48.10
68011;DHT22;54794;48.348;7.878;2023-03-19T14:37:53;19.10;48.20
68011;DHT22;54794;48.348;7.878;2023-03-19T14:40:30;19.00;48.10
68011;DHT22;54794;48.348;7.878;2023-03-19T14:45:59;18.80;48.10
68011;DHT22;54794;48.348;7.878;2023-03-19T14:51:56;18.70;48.10
68011;DHT22;54794;48.348;7.878;2023-03-19T14:54:44;18.50;48.90
68011;DHT22;54794;48.348;7.878;2023-03-19T14:57:25;18.40;48.40
68011;DHT22;54794;48.348;7.878;2023-03-19T14:59:55;18.20;48.50
68011;DHT22;54794;48.348;7.878;2023-03-19T15:05:29;18.00;48.80
68011;DHT22;54794;48.348;7.878;2023-03-19T15:08:02;17.90;49.40
68011;DHT22;54794;48.348;7.878;2023-03-19T15:19:24;17.70;49.60
68011;DHT22;54794;48.348;7.878;2023-03-19T15:22:13;17.70;50.80
68011;DHT22;54794;48.348;7.878;2023-03-19T15:24:48;17.80;51.00
68011;DHT22;54794;48.348;7.878;2023-03-19T15:27:23;17.90;50.70
68011;DHT22;54794;48.348;7.878;2023-03-19T15:29:52;18.00;51.30
68011;DHT22;54794;48.348;7.878;2023-03-19T15:32:37;18.10;51.00
68011;DHT22;54794;48.348;7.878;2023-03-19T15:35:34;18.30;51.70
68011;DHT22;54794;48.348;7.878;2023-03-19T15:38:06;18.50;51.30
68011;DHT22;54794;48.348;7.878;2023-03-19T15:40:35;18.60;51.80
68011;DHT22;54794;48.348;7.878;2023-03-19T15:43:04;18.80;51.30
68011;DHT22;54794;48.348;7.878;2023-03-19T15:45:32;19.00;51.30
68011;DHT22;54794;48.348;7.878;2023-03-19T15:48:04;19.10;51.10
68011;DHT22;54794;48.348;7.878;2023-03-19T15:50:42;19.30;51.10
68011;DHT22;54794;48.348;7.878;2023-03-19T15:53:15;19.40;50.70
68011;DHT22;54794;48.348;7.878;2023-03-19T15:55:51;19.60;50.20
68011;DHT22;54794;48.348;7.878;2023-03-19T15:58:26;19.60;50.00
68011;DHT22;54794;48.348;7.878;2023-03-19T16:00:55;19.70;49.90
68011;DHT22;54794;48.348;7.878;2023-03-19T16:03:28;19.70;49.70
68011;DHT22;54794;48.348;7.878;2023-03-19T16:06:04;19.70;49.60
68011;DHT22;54794;48.348;7.878;2023-03-19T16:08:54;19.80;49.60
68011;DHT22;54794;48.348;7.878;2023-03-19T16:11:36;19.80;49.20
68011;DHT22;54794;48.348;7.878;2023-03-19T16:14:10;19.90;49.40
68011;DHT22;54794;48.348;7.878;2023-03-19T16:16:48;19.80;49.30
68011;DHT22;54794;48.348;7.878;2023-03-19T16:22:28;19.80;49.70
68011;DHT22;54794;48.348;7.878;2023-03-19T16:24:57;19.80;49.00
68011;DHT22;54794;48.348;7.878;2023-03-19T16:27:38;19.70;49.40
68011;DHT22;54794;48.348;7.878;2023-03-19T16:30:22;19.70;49.00
68011;DHT22;54794;48.348;7.878;2023-03-19T16:35:31;19.60;49.10
68011;DHT22;54794;48.348;7.878;2023-03-19T16:38:17;19.50;48.90
68011;DHT22;54794;48.348;7.878;2023-03-19T16:40:49;19.40;48.90
68011;DHT22;54794;48.348;7.878;2023-03-19T16:44:14;19.40;48.70
68011;DHT22;54794;48.348;7.878;2023-03-19T16:46:45;19.30;48.40
68011;DHT22;54794;48.348;7.878;2023-03-19T16:49:12;19.20;48.50
68011;DHT22;54794;48.348;7.878;2023-03-19T16:51:39;19.10;48.60
68011;DHT22;54794;48.348;7.878;2023-03-19T16:54:08;19.00;48.60
68011;DHT22;54794;48.348;7.878;2023-03-19T16:56:37;19.00;48.60
68011;DHT22;54794;48.348;7.878;2023-03-19T16:59:04;18.90;48.80
68011;DHT22;54794;48.348;7.878;2023-03-19T17:01:31;18.80;48.90
68011;DHT22;54794;48.348;7.878;2023-03-19T17:03:58;18.80;49.00
68011;DHT22;54794;48.348;7.878;2023-03-19T17:06:25;18.70;49.10
68011;DHT22;54794;48.348;7.878;2023-03-19T17:08:54;18.70;49.20
68011;DHT22;54794;48.348;7.878;2023-03-19T17:11:34;18.60;49.20
68011;DHT22;54794;48.348;7.878;2023-03-19T17:14:14;18.50;49.40
68011;DHT22;54794;48.348;7.878;2023-03-19T17:16:45;18.50;49.30
68011;DHT22;54794;48.348;7.878;2023-03-19T17:19:34;18.40;49.20
68011;DHT22;54794;48.348;7.878;2023-03-19T17:22:44;18.30;49.50
68011;DHT22;54794;48.348;7.878;2023-03-19T17:26:20;18.30;49.60
68011;DHT22;54794;48.348;7.878;2023-03-19T17:32:46;18.10;49.50
68011;DHT22;54794;48.348;7.878;2023-03-19T17:39:27;17.90;49.40
68011;DHT22;54794;48.348;7.878;2023-03-19T17:42:45;17.80;49.20
68011;DHT22;54794;48.348;7.878;2023-03-19T17:46:28;17.90;49.70
68011;DHT22;54794;48.348;7.878;2023-03-19T17:49:29;17.70;49.50
68011;DHT22;54794;48.348;7.878;2023-03-19T17:52:28;17.60;49.50
68011;DHT22;54794;48.348;7.878;2023-03-19T17:55:24;17.60;49.50
68011;DHT22;54794;48.348;7.878;2023-03-19T17:58:43;17.40;49.00
68011;DHT22;54794;48.348;7.878;2023-03-19T18:01:20;17.30;48.70
68011;DHT22;54794;48.348;7.878;2023-03-19T18:03:52;17.20;48.60
68011;DHT22;54794;48.348;7.878;2023-03-19T18:06:30;17.10;48.70
68011;DHT22;54794;48.348;7.878;2023-03-19T18:09:08;16.90;48.80
68011;DHT22;54794;48.348;7.878;2023-03-19T18:11:48;16.80;48.90
68011;DHT22;54794;48.348;7.878;2023-03-19T18:14:20;16.70;49.10